Time;durP1;ratioP1;P1;durP2;ratioP2;P2;SDS_P1;SDS_P2;PMS_P1;PMS_P2;Temp;Humidity;BMP_temperature;BMP_pressure;BME280_temperature;BME280_humidity;BME280_pressure;Samples;Min_cycle;Max_cycle;Signal;HPM_P1;HPM_P2
2021/11/24 00:00:39;;;;;;;6.57;2.22;;;19.80;56.80;;;;;;6152288;22;87638;-74
2021/11/24 00:03:05;;;;;;;6.63;2.85;;;19.80;56.90;;;;;;6152467;22;87104;-75
2021/11/24 00:05:31;;;;;;;6.18;2.60;;;19.80;56.90;;;;;;6151161;22;90559;-74
2021/11/24 00:07:57;;;;;;;5.20;2.60;;;19.80;56.90;;;;;;6149886;22;88129;-76
2021/11/24 00:10:22;;;;;;;6.15;2.30;;;19.80;56.90;;;;;;6152666;22;87638;-75
2021/11/24 00:12:48;;;;;;;4.65;2.20;;;19.80;56.90;;;;;;6151221;22;87808;-74
2021/11/24 00:15:14;;;;;;;5.78;2.88;;;19.80;57.00;;;;;;6151321;22;87729;-75
2021/11/24 00:17:40;;;;;;;4.28;2.40;;;19.80;57.00;;;;;;6151264;22;91477;-76
2021/11/24 00:20:08;;;;;;;5.32;2.30;;;19.80;57.00;;;;;;6152511;22;86995;-76
2021/11/24 00:22:34;;;;;;;5.05;2.22;;;19.70;57.00;;;;;;6151549;22;88502;-75
2021/11/24 00:25:00;;;;;;;4.63;2.42;;;19.80;57.10;;;;;;6152171;22;87736;-75
2021/11/24 00:27:25;;;;;;;9.63;2.88;;;19.70;57.00;;;;;;6152780;22;87840;-75
2021/11/24 00:29:53;;;;;;;5.18;2.50;;;19.80;57.10;;;;;;6150934;22;88391;-74
2021/11/24 00:32:19;;;;;;;4.28;2.17;;;19.70;57.10;;;;;;6150607;22;87953;-74
2021/11/24 00:34:45;;;;;;;8.50;2.17;;;19.80;57.20;;;;;;6150318;22;87684;-76
2021/11/24 00:37:11;;;;;;;3.38;2.20;;;19.80;57.20;;;;;;6152291;22;87853;-74
2021/11/24 00:39:36;;;;;;;4.80;2.25;;;19.70;57.20;;;;;;6151496;22;87255;-74
2021/11/24 00:42:02;;;;;;;6.82;2.20;;;19.70;57.30;;;;;;6152978;22;87745;-76
2021/11/24 00:44:28;;;;;;;4.45;2.38;;;19.70;57.30;;;;;;6150822;22;89301;-75
2021/11/24 00:46:53;;;;;;;4.72;2.13;;;19.70;57.30;;;;;;6152244;22;87525;-74
2021/11/24 00:49:19;;;;;;;4.82;2.28;;;19.70;57.40;;;;;;6151912;22;87735;-75
2021/11/24 00:51:45;;;;;;;5.45;2.42;;;19.70;57.50;;;;;;6152784;22;87024;-75
2021/11/24 00:54:10;;;;;;;3.65;1.92;;;19.70;57.50;;;;;;6152227;22;88143;-75
2021/11/24 00:56:36;;;;;;;4.13;2.30;;;19.70;57.50;;;;;;6152222;22;88713;-76
2021/11/24 00:59:04;;;;;;;4.90;2.42;;;19.70;57.50;;;;;;6151307;22;87288;-76
2021/11/24 01:01:29;;;;;;;5.65;2.58;;;19.70;57.60;;;;;;6151029;22;87761;-76
2021/11/24 01:03:55;;;;;;;6.80;3.03;;;19.70;57.60;;;;;;6150613;22;88218;-75
2021/11/24 01:06:20;;;;;;;5.60;2.60;;;19.70;57.60;;;;;;6149435;22;90292;-75
2021/11/24 01:08:46;;;;;;;4.78;2.38;;;19.60;57.60;;;;;;6151096;22;86985;-74
2021/11/24 01:11:12;;;;;;;4.20;2.10;;;19.60;57.60;;;;;;6150990;22;86902;-77
2021/11/24 01:13:37;;;;;;;6.60;2.47;;;19.60;57.70;;;;;;6149114;22;87874;-76
2021/11/24 01:16:03;;;;;;;7.38;2.88;;;19.60;57.70;;;;;;6151193;22;87577;-77
2021/11/24 01:18:29;;;;;;;5.38;2.67;;;19.60;57.80;;;;;;6150393;22;88750;-77
2021/11/24 01:20:55;;;;;;;4.97;2.20;;;19.60;57.80;;;;;;6150393;22;87063;-75
2021/11/24 01:23:20;;;;;;;3.67;2.30;;;19.60;57.80;;;;;;6150889;22;87662;-75
2021/11/24 01:25:46;;;;;;;4.80;2.17;;;19.60;57.80;;;;;;6149793;22;88344;-76
2021/11/24 01:28:12;;;;;;;5.57;2.38;;;19.60;57.90;;;;;;6150659;22;87276;-76
2021/11/24 01:30:37;;;;;;;5.88;2.30;;;19.60;57.90;;;;;;6150594;22;87836;-74
2021/11/24 01:33:03;;;;;;;5.30;2.25;;;19.60;57.90;;;;;;6150583;22;88701;-75
2021/11/24 01:35:29;;;;;;;4.28;2.33;;;19.60;57.90;;;;;;6151544;22;87505;-75
2021/11/24 01:37:54;;;;;;;4.78;2.60;;;19.60;57.90;;;;;;6148757;22;87841;-74
2021/11/24 01:40:20;;;;;;;5.13;2.25;;;19.60;58.00;;;;;;6148672;22;87622;-76
2021/11/24 01:42:46;;;;;;;5.53;2.83;;;19.60;58.00;;;;;;6150311;22;88848;-75
2021/11/24 01:45:16;;;;;;;5.80;2.63;;;19.60;58.00;;;;;;6149133;22;90804;-75
2021/11/24 01:47:42;;;;;;;8.82;2.80;;;19.60;58.00;;;;;;6149783;22;87754;-75
2021/11/24 01:50:08;;;;;;;4.68;2.40;;;19.50;58.00;;;;;;6150644;22;87690;-75
2021/11/24 01:52:34;;;;;;;4.88;2.05;;;19.50;58.00;;;;;;6150308;22;88516;-74
2021/11/24 01:55:01;;;;;;;5.65;2.63;;;19.50;58.00;;;;;;6150758;22;87876;-75
2021/11/24 01:57:28;;;;;;;5.65;2.42;;;19.50;58.00;;;;;;6150992;22;87231;-75
2021/11/24 01:59:56;;;;;;;5.22;2.63;;;19.50;58.10;;;;;;6150287;22;87441;-75
2021/11/24 02:02:22;;;;;;;7.50;2.67;;;19.50;58.10;;;;;;6150256;22;87501;-75
2021/11/24 02:04:48;;;;;;;4.97;2.65;;;19.50;58.10;;;;;;6150409;22;89097;-76
2021/11/24 02:07:14;;;;;;;8.15;3.05;;;19.50;58.10;;;;;;6149450;22;88070;-75
2021/11/24 02:09:39;;;;;;;4.40;2.38;;;19.50;58.10;;;;;;6149050;22;88267;-77
2021/11/24 02:12:06;;;;;;;5.75;2.50;;;19.50;58.20;;;;;;6149450;22;88250;-76
2021/11/24 02:14:32;;;;;;;9.57;2.63;;;19.50;58.20;;;;;;6149847;22;87647;-77
2021/11/24 02:16:57;;;;;;;6.38;2.65;;;19.50;58.20;;;;;;6151400;22;87850;-77
2021/11/24 02:19:29;;;;;;;5.80;2.65;;;19.50;58.30;;;;;;6150717;22;87147;-76
2021/11/24 02:21:55;;;;;;;6.80;2.20;;;19.50;58.30;;;;;;6150005;22;88270;-75
2021/11/24 02:24:24;;;;;;;5.40;2.67;;;19.50;58.30;;;;;;6148581;22;87388;-75
2021/11/24 02:26:50;;;;;;;5.35;2.55;;;19.50;58.30;;;;;;6149632;22;87424;-75
2021/11/24 02:29:15;;;;;;;4.13;2.35;;;19.40;58.30;;;;;;6151000;22;87476;-75
2021/11/24 02:31:46;;;;;;;5.60;2.40;;;19.50;58.30;;;;;;6149917;22;89490;-77
2021/11/24 02:34:12;;;;;;;4.25;2.45;;;19.40;58.30;;;;;;6149730;22;88658;-76
2021/11/24 02:36:37;;;;;;;4.43;2.20;;;19.40;58.30;;;;;;6149911;22;87631;-75
2021/11/24 02:39:04;;;;;;;5.38;2.50;;;19.40;58.30;;;;;;6149462;22;87105;-76
2021/11/24 02:41:30;;;;;;;7.32;3.33;;;19.40;58.40;;;;;;6148327;22;90671;-75
2021/11/24 02:43:56;;;;;;;4.57;2.58;;;19.40;58.90;;;;;;6150567;22;87319;-77
2021/11/24 02:46:26;;;;;;;8.18;2.80;;;19.40;58.40;;;;;;6150382;22;87510;-76
2021/11/24 02:48:52;;;;;;;8.77;2.55;;;19.40;58.40;;;;;;6148913;22;86916;-75
2021/11/24 02:51:18;;;;;;;6.68;2.53;;;19.40;58.40;;;;;;6148635;22;88390;-76
2021/11/24 02:53:43;;;;;;;5.22;2.55;;;19.40;58.40;;;;;;6148635;22;88853;-76
2021/11/24 02:56:09;;;;;;;4.63;2.30;;;19.40;58.40;;;;;;6149131;22;88806;-75
2021/11/24 02:58:34;;;;;;;7.55;2.20;;;19.40;58.50;;;;;;6149688;22;87470;-75
2021/11/24 03:01:02;;;;;;;6.10;2.38;;;19.40;58.50;;;;;;6148950;22;88562;-75
2021/11/24 03:03:28;;;;;;;6.95;2.92;;;19.40;58.50;;;;;;6148399;22;88576;-74
2021/11/24 03:05:54;;;;;;;6.00;2.92;;;19.40;58.50;;;;;;6150190;22;87534;-76
2021/11/24 03:08:19;;;;;;;5.63;2.63;;;19.40;59.10;;;;;;6148831;22;87559;-74
2021/11/24 03:10:45;;;;;;;10.10;3.05;;;19.30;58.50;;;;;;6149655;22;87430;-76
2021/11/24 03:13:11;;;;;;;5.28;2.15;;;19.40;58.60;;;;;;6150736;22;89617;-76
2021/11/24 03:15:37;;;;;;;6.97;2.80;;;19.40;58.60;;;;;;6149394;22;88012;-77
2021/11/24 03:18:03;;;;;;;4.45;2.58;;;19.30;58.60;;;;;;6150251;22;87691;-75
2021/11/24 03:20:28;;;;;;;4.72;2.58;;;19.40;58.60;;;;;;6149238;22;89087;-76
2021/11/24 03:22:58;;;;;;;5.68;2.63;;;19.30;58.60;;;;;;6150541;22;88819;-76
2021/11/24 03:25:24;;;;;;;4.22;2.42;;;19.30;58.60;;;;;;6151148;22;86952;-76
2021/11/24 03:27:50;;;;;;;4.63;2.55;;;19.30;58.60;;;;;;6149744;22;87598;-77
2021/11/24 03:30:28;;;;;;;3.83;2.40;;;19.30;58.60;;;;;;6149888;22;89221;-76
2021/11/24 03:32:54;;;;;;;7.55;2.88;;;19.30;58.70;;;;;;6149267;22;90239;-76
2021/11/24 03:35:21;;;;;;;5.80;2.83;;;19.30;58.70;;;;;;6150782;22;87873;-76
2021/11/24 03:37:50;;;;;;;7.25;2.67;;;19.30;58.70;;;;;;6151310;22;86859;-74
2021/11/24 03:40:17;;;;;;;6.32;2.80;;;19.30;58.70;;;;;;6151468;22;88961;-76
2021/11/24 03:42:46;;;;;;;6.70;2.90;;;19.30;58.70;;;;;;6151985;22;87748;-74
2021/11/24 03:45:12;;;;;;;6.18;2.67;;;19.30;58.70;;;;;;6150295;22;89028;-74
2021/11/24 03:47:38;;;;;;;5.72;2.80;;;19.30;58.70;;;;;;6150330;22;88838;-74
2021/11/24 03:50:05;;;;;;;7.50;3.00;;;19.30;58.70;;;;;;6150612;22;87710;-74
2021/11/24 03:52:31;;;;;;;6.85;2.83;;;19.30;58.70;;;;;;6151277;22;87880;-75
2021/11/24 03:54:57;;;;;;;5.13;2.42;;;19.30;58.70;;;;;;6151568;22;87578;-75
2021/11/24 03:57:22;;;;;;;5.15;2.28;;;19.30;58.80;;;;;;6150783;22;87379;-74
2021/11/24 03:59:48;;;;;;;5.53;2.63;;;19.30;58.80;;;;;;6149623;22;90191;-74
2021/11/24 04:02:13;;;;;;;5.28;2.70;;;19.30;58.80;;;;;;6150537;22;87131;-75
2021/11/24 04:04:39;;;;;;;6.15;2.90;;;19.30;58.80;;;;;;6151723;22;87233;-75
2021/11/24 04:07:05;;;;;;;4.68;2.33;;;19.20;58.80;;;;;;6151406;22;87635;-74
2021/11/24 04:09:30;;;;;;;5.53;2.20;;;19.20;58.80;;;;;;6150997;22;88073;-74
2021/11/24 04:11:56;;;;;;;5.20;2.85;;;19.20;58.80;;;;;;6150901;22;90912;-75
2021/11/24 04:14:21;;;;;;;6.55;2.63;;;19.30;58.90;;;;;;6150762;22;87459;-76
2021/11/24 04:16:47;;;;;;;6.90;3.17;;;19.20;58.90;;;;;;6151292;22;87768;-75
2021/11/24 04:19:13;;;;;;;6.30;2.25;;;19.20;58.90;;;;;;6150470;22;87796;-75
2021/11/24 04:21:38;;;;;;;8.27;3.25;;;19.20;59.00;;;;;;6150521;22;87446;-77
2021/11/24 04:24:04;;;;;;;6.15;2.75;;;19.20;59.00;;;;;;6149454;22;87682;-75
2021/11/24 04:26:30;;;;;;;5.10;2.50;;;19.20;59.00;;;;;;6150762;22;86807;-75
2021/11/24 04:28:56;;;;;;;5.03;2.45;;;19.20;59.00;;;;;;6149428;22;87937;-77
2021/11/24 04:31:21;;;;;;;8.43;2.60;;;19.20;59.00;;;;;;6151242;22;88478;-75
2021/11/24 04:33:47;;;;;;;4.25;2.22;;;19.20;59.10;;;;;;6150671;22;88216;-75
2021/11/24 04:38:43;;;;;;;7.05;2.53;;;19.20;59.10;;;;;;6117350;22;87391;-76
2021/11/24 04:41:08;;;;;;;5.50;2.60;;;19.20;59.10;;;;;;6117107;23;87390;-76
2021/11/24 04:43:39;;;;;;;7.22;2.40;;;19.20;59.20;;;;;;6117992;23;87547;-78
2021/11/24 04:46:05;;;;;;;8.32;3.20;;;19.20;59.20;;;;;;6119152;23;87232;-76
2021/11/24 04:48:31;;;;;;;7.15;2.80;;;19.20;59.20;;;;;;6117511;23;87960;-75
2021/11/24 04:50:57;;;;;;;5.13;2.75;;;19.20;59.20;;;;;;6119111;23;86989;-76
2021/11/24 04:53:22;;;;;;;8.95;2.92;;;19.20;59.20;;;;;;6120048;23;87134;-76
2021/11/24 04:55:48;;;;;;;5.53;2.75;;;19.20;59.30;;;;;;6118444;23;87996;-76
2021/11/24 04:58:14;;;;;;;5.45;2.88;;;19.20;59.30;;;;;;6118227;22;90454;-76
2021/11/24 05:00:40;;;;;;;7.95;3.33;;;19.10;59.20;;;;;;6119013;23;88368;-76
2021/11/24 05:03:06;;;;;;;5.53;3.10;;;19.10;59.20;;;;;;6119121;23;87716;-76
2021/11/24 05:05:32;;;;;;;5.35;2.72;;;19.10;59.30;;;;;;6117494;23;89270;-76
2021/11/24 05:07:59;;;;;;;10.90;2.58;;;19.10;59.30;;;;;;6117545;22;89191;-76
2021/11/24 05:10:26;;;;;;;10.30;2.88;;;19.20;59.40;;;;;;6119709;23;88779;-76
2021/11/24 05:12:52;;;;;;;5.13;2.90;;;19.20;59.40;;;;;;6119900;23;86996;-76
2021/11/24 05:15:28;;;;;;;5.00;2.83;;;19.10;59.30;;;;;;6119984;23;86970;-76
2021/11/24 05:17:57;;;;;;;6.45;3.08;;;19.10;59.30;;;;;;6119372;22;88063;-76
2021/11/24 05:20:26;;;;;;;5.07;2.95;;;19.10;59.30;;;;;;6119339;23;87741;-76
2021/11/24 05:22:53;;;;;;;6.55;2.65;;;19.10;59.30;;;;;;6117600;23;89122;-76
2021/11/24 05:25:19;;;;;;;5.38;3.00;;;19.10;59.40;;;;;;6116589;23;87822;-77
2021/11/24 05:27:44;;;;;;;4.40;2.72;;;19.10;59.40;;;;;;6118726;23;89517;-76
2021/11/24 05:30:10;;;;;;;5.78;2.60;;;19.10;59.40;;;;;;6119791;23;87809;-76
2021/11/24 05:32:37;;;;;;;6.45;3.40;;;19.10;59.40;;;;;;6119466;23;87425;-76
2021/11/24 05:35:05;;;;;;;6.15;2.70;;;19.10;59.40;;;;;;6119706;23;87440;-76
2021/11/24 05:37:32;;;;;;;5.38;2.60;;;19.10;59.40;;;;;;6117610;23;90618;-76
2021/11/24 05:39:58;;;;;;;6.55;3.10;;;19.10;59.40;;;;;;6118442;22;90203;-76
2021/11/24 05:42:25;;;;;;;5.45;2.42;;;19.10;59.50;;;;;;6118641;23;87573;-76
2021/11/24 05:45:00;;;;;;;6.47;2.45;;;19.10;59.50;;;;;;6118086;23;87014;-76
2021/11/24 05:50:10;;;;;;;5.55;2.67;;;19.10;59.50;;;;;;6119011;23;87912;-76
2021/11/24 05:52:36;;;;;;;5.90;3.13;;;19.10;59.60;;;;;;6119955;23;87685;-76
2021/11/24 05:55:03;;;;;;;7.50;2.90;;;19.10;59.60;;;;;;6118939;23;87618;-76
2021/11/24 05:57:28;;;;;;;7.20;3.05;;;19.10;59.60;;;;;;6119065;23;88666;-76
2021/11/24 05:59:54;;;;;;;4.53;2.58;;;19.10;59.60;;;;;;6118397;22;87474;-76
2021/11/24 06:02:20;;;;;;;4.55;2.50;;;19.10;59.60;;;;;;6119429;23;87421;-76
2021/11/24 06:04:45;;;;;;;6.95;2.72;;;19.10;59.60;;;;;;6119602;23;86789;-75
2021/11/24 06:07:11;;;;;;;4.90;2.50;;;19.10;59.60;;;;;;6117256;23;89857;-76
2021/11/24 06:09:36;;;;;;;7.28;3.03;;;19.10;59.60;;;;;;6117690;22;90746;-76
2021/11/24 06:12:02;;;;;;;5.03;2.75;;;19.10;59.60;;;;;;6118314;23;88652;-76
2021/11/24 06:14:28;;;;;;;5.45;3.00;;;19.00;59.60;;;;;;6118583;23;87351;-76
2021/11/24 06:16:54;;;;;;;4.30;2.70;;;19.10;59.70;;;;;;6118920;23;86999;-76
2021/11/24 06:19:19;;;;;;;5.25;2.83;;;19.00;59.70;;;;;;6118869;23;87390;-76
2021/11/24 06:21:45;;;;;;;6.78;2.78;;;19.10;59.70;;;;;;6118765;23;88072;-76
2021/11/24 06:24:11;;;;;;;6.68;2.75;;;19.00;59.70;;;;;;6119338;23;87445;-76
2021/11/24 06:26:37;;;;;;;8.45;2.70;;;19.00;59.70;;;;;;6118917;23;87908;-76
2021/11/24 06:29:03;;;;;;;5.75;2.67;;;19.00;59.70;;;;;;6118063;22;90963;-75
2021/11/24 06:31:29;;;;;;;4.43;2.35;;;19.00;59.70;;;;;;6119686;23;86894;-76
2021/11/24 06:33:55;;;;;;;4.68;2.63;;;19.00;59.70;;;;;;6118932;23;87052;-76
2021/11/24 06:36:24;;;;;;;5.65;3.13;;;19.00;59.70;;;;;;6117746;23;88459;-77
2021/11/24 06:38:53;;;;;;;5.55;2.58;;;19.00;59.80;;;;;;6118790;22;88345;-76
2021/11/24 06:41:19;;;;;;;6.80;2.88;;;19.00;59.80;;;;;;6119900;23;87581;-75
2021/11/24 06:43:44;;;;;;;5.47;2.47;;;19.00;59.90;;;;;;6118544;23;87729;-76
2021/11/24 06:46:10;;;;;;;7.15;2.60;;;19.00;59.90;;;;;;6117955;23;87804;-77
2021/11/24 06:48:36;;;;;;;5.47;2.78;;;19.00;59.90;;;;;;6118096;23;87555;-76
2021/11/24 06:51:02;;;;;;;4.70;2.33;;;19.00;60.00;;;;;;6119222;22;87330;-76
2021/11/24 06:53:28;;;;;;;4.68;2.65;;;19.00;59.90;;;;;;6120126;23;86712;-76
2021/11/24 06:55:53;;;;;;;4.70;2.55;;;19.00;59.90;;;;;;6119557;23;88391;-76
2021/11/24 06:58:19;;;;;;;5.70;2.70;;;19.00;59.90;;;;;;6118646;22;88098;-75
2021/11/24 07:00:45;;;;;;;5.22;2.55;;;19.00;59.90;;;;;;6118753;23;88062;-76
2021/11/24 07:03:11;;;;;;;5.68;2.65;;;19.00;59.90;;;;;;6117929;23;87610;-75
2021/11/24 07:05:37;;;;;;;5.00;2.70;;;19.00;60.00;;;;;;6119158;23;88099;-76
2021/11/24 07:08:03;;;;;;;5.20;2.63;;;19.00;59.90;;;;;;6118508;23;88040;-76
2021/11/24 07:10:29;;;;;;;3.85;2.30;;;19.00;59.90;;;;;;6119303;23;87370;-76
2021/11/24 07:12:55;;;;;;;4.35;2.33;;;19.00;60.00;;;;;;6119470;23;87188;-76
2021/11/24 07:15:21;;;;;;;6.65;2.90;;;19.00;60.00;;;;;;6119469;23;87963;-76
2021/11/24 07:17:47;;;;;;;7.07;3.03;;;19.00;59.90;;;;;;6119315;23;87608;-76
2021/11/24 07:20:13;;;;;;;5.95;2.50;;;19.00;60.00;;;;;;6118731;23;87748;-76
2021/11/24 07:22:39;;;;;;;6.05;2.60;;;18.90;59.90;;;;;;6116736;23;88756;-76
2021/11/24 07:25:05;;;;;;;6.22;2.67;;;18.90;59.90;;;;;;6117671;23;88889;-76
2021/11/24 07:27:31;;;;;;;5.40;2.67;;;18.90;59.90;;;;;;6119774;22;89375;-76
2021/11/24 07:29:56;;;;;;;4.43;2.53;;;18.90;59.90;;;;;;6118909;23;87474;-76
2021/11/24 07:32:22;;;;;;;6.20;2.72;;;18.90;59.90;;;;;;6119105;23;87607;-76
2021/11/24 07:34:48;;;;;;;5.93;2.35;;;18.90;59.90;;;;;;6119367;23;88333;-76
2021/11/24 07:37:14;;;;;;;7.18;3.00;;;18.90;59.90;;;;;;6119108;23;87394;-76
2021/11/24 07:39:39;;;;;;;5.90;3.05;;;18.90;60.00;;;;;;6119306;22;87365;-76
2021/11/24 07:42:05;;;;;;;5.50;2.72;;;18.90;59.90;;;;;;6118833;23;86822;-76
2021/11/24 07:44:31;;;;;;;4.35;2.50;;;18.90;60.00;;;;;;6119374;23;89124;-77
2021/11/24 07:46:56;;;;;;;5.10;3.00;;;18.90;59.90;;;;;;6118143;23;87443;-76
2021/11/24 07:49:22;;;;;;;6.25;2.67;;;18.90;59.90;;;;;;6117671;23;88609;-76
2021/11/24 07:51:48;;;;;;;4.45;2.60;;;18.90;59.90;;;;;;6118001;23;88009;-76
2021/11/24 07:54:14;;;;;;;5.15;2.88;;;18.90;60.00;;;;;;6118215;23;87804;-76
2021/11/24 07:56:40;;;;;;;4.28;2.72;;;18.90;59.90;;;;;;6117862;23;89925;-76
2021/11/24 07:59:05;;;;;;;3.97;2.40;;;18.90;59.90;;;;;;6118891;23;87441;-76
2021/11/24 08:01:31;;;;;;;4.18;2.58;;;18.90;59.90;;;;;;6118220;23;87293;-76
2021/11/24 08:03:56;;;;;;;4.90;2.40;;;18.90;60.00;;;;;;6118670;23;87758;-76
2021/11/24 08:06:22;;;;;;;8.75;3.35;;;18.90;60.00;;;;;;6119234;23;87307;-76
2021/11/24 08:08:48;;;;;;;8.85;2.55;;;18.90;60.00;;;;;;6119112;23;87537;-76
2021/11/24 08:11:13;;;;;;;4.47;2.60;;;18.90;60.00;;;;;;6119791;23;87317;-76
2021/11/24 08:13:39;;;;;;;3.83;2.47;;;18.90;60.00;;;;;;6119532;23;87881;-76
2021/11/24 08:16:05;;;;;;;4.82;2.58;;;18.90;60.00;;;;;;6120288;23;88705;-76
2021/11/24 08:18:30;;;;;;;4.85;2.40;;;18.90;60.00;;;;;;6119731;23;87698;-76
2021/11/24 08:20:56;;;;;;;7.70;2.80;;;18.90;60.10;;;;;;6119577;23;87493;-76
2021/11/24 08:23:22;;;;;;;8.93;3.17;;;18.90;60.50;;;;;;6120760;23;87837;-76
2021/11/24 08:25:47;;;;;;;10.23;3.30;;;18.90;60.50;;;;;;6119726;23;88426;-76
2021/11/24 08:28:13;;;;;;;6.43;3.17;;;18.90;60.40;;;;;;6119667;23;89580;-76
2021/11/24 08:30:39;;;;;;;11.48;4.20;;;18.90;60.40;;;;;;6119215;23;86917;-76
2021/11/24 08:33:05;;;;;;;8.88;4.20;;;19.00;60.30;;;;;;6120001;23;90285;-76
2021/11/24 08:35:31;;;;;;;10.60;4.57;;;19.10;60.10;;;;;;6121871;23;90202;-75
2021/11/24 08:37:56;;;;;;;7.90;4.30;;;19.20;60.00;;;;;;6118127;22;88502;-76
2021/11/24 08:40:22;;;;;;;14.65;5.40;;;19.20;59.80;;;;;;6117644;23;87889;-76
2021/11/24 08:42:48;;;;;;;16.67;5.55;;;19.30;59.60;;;;;;6119669;23;88812;-76
2021/11/24 08:45:14;;;;;;;17.48;5.95;;;19.40;59.40;;;;;;6120128;23;87748;-76
2021/11/24 08:47:40;;;;;;;15.65;5.80;;;19.50;59.30;;;;;;6119991;23;87781;-76
2021/11/24 08:50:10;;;;;;;12.98;5.53;;;19.60;59.20;;;;;;6117925;23;89518;-76
2021/11/24 08:52:36;;;;;;;18.63;6.78;;;19.70;59.10;;;;;;6114428;22;88855;-77
2021/11/24 08:55:03;;;;;;;15.98;6.00;;;19.70;58.90;;;;;;6118961;23;89987;-77
2021/11/24 08:57:29;;;;;;;18.40;7.40;;;19.80;58.70;;;;;;6119196;23;87654;-77
2021/11/24 08:59:54;;;;;;;42.47;9.25;;;19.90;58.60;;;;;;6119656;23;87072;-77
2021/11/24 09:02:22;;;;;;;32.58;9.68;;;19.90;58.40;;;;;;6117945;23;88718;-78
2021/11/24 09:04:48;;;;;;;45.83;10.82;;;19.90;58.40;;;;;;6046789;22;91371;-77
2021/11/24 09:07:14;;;;;;;39.55;10.55;;;20.00;58.30;;;;;;6119098;22;87554;-77
2021/11/24 09:09:40;;;;;;;37.58;10.93;;;20.00;58.30;;;;;;6117349;22;88080;-77
2021/11/24 09:12:07;;;;;;;54.03;10.68;;;20.00;58.30;;;;;;6114706;23;91499;-77
2021/11/24 09:14:33;;;;;;;31.60;11.13;;;20.00;58.40;;;;;;6116354;23;88775;-77
2021/11/24 09:16:59;;;;;;;47.88;10.60;;;20.00;58.40;;;;;;6117755;23;87038;-77
2021/11/24 09:19:24;;;;;;;53.30;11.50;;;20.00;58.40;;;;;;6117080;22;88512;-77
2021/11/24 09:21:50;;;;;;;30.30;9.90;;;20.00;58.60;;;;;;6116277;23;90426;-78
2021/11/24 09:24:21;;;;;;;39.13;10.93;;;20.00;58.60;;;;;;6118051;23;90322;-78
2021/11/24 09:26:59;;;;;;;37.85;10.77;;;20.00;58.70;;;;;;6117674;23;88582;-77
2021/11/24 09:29:25;;;;;;;42.80;11.30;;;20.00;58.70;;;;;;6119643;22;87206;-77
2021/11/24 09:31:55;;;;;;;29.33;9.80;;;20.00;58.60;;;;;;6118955;22;88033;-78
2021/11/24 09:34:22;;;;;;;33.63;10.80;;;20.00;58.70;;;;;;6118370;23;87741;-78
2021/11/24 09:36:47;;;;;;;34.03;9.77;;;20.00;58.70;;;;;;6118645;22;87400;-78
2021/11/24 09:39:13;;;;;;;34.20;9.70;;;20.00;58.70;;;;;;6117935;22;88030;-78
2021/11/24 09:41:42;;;;;;;42.03;10.68;;;20.00;58.70;;;;;;6119502;23;91163;-77
2021/11/24 09:44:08;;;;;;;26.35;9.63;;;20.00;58.70;;;;;;6119112;23;87372;-77
2021/11/24 09:46:34;;;;;;;28.45;10.30;;;20.00;58.70;;;;;;6118094;23;87422;-77
2021/11/24 09:49:04;;;;;;;30.98;9.60;;;20.10;58.70;;;;;;6116725;22;87697;-77
2021/11/24 09:51:34;;;;;;;27.85;9.63;;;20.20;58.60;;;;;;6118933;23;89590;-77
2021/11/24 09:54:02;;;;;;;26.27;10.30;;;20.20;58.40;;;;;;6117552;23;89816;-77
2021/11/24 09:56:28;;;;;;;21.20;10.00;;;20.20;58.30;;;;;;6122583;23;87541;-77
2021/11/24 09:58:55;;;;;;;29.83;9.88;;;20.30;58.30;;;;;;6123544;22;87968;-78
2021/11/24 10:01:21;;;;;;;27.17;9.98;;;20.40;58.30;;;;;;6122852;23;88037;-77
2021/11/24 10:03:48;;;;;;;26.50;10.05;;;20.40;58.30;;;;;;6122527;23;88069;-77
2021/11/24 10:06:14;;;;;;;35.30;9.70;;;20.40;58.10;;;;;;6121562;23;88460;-78
2021/11/24 10:08:40;;;;;;;22.98;9.90;;;20.50;58.10;;;;;;6125107;23;87387;-77
2021/11/24 10:11:06;;;;;;;22.67;9.75;;;20.50;58.00;;;;;;6122733;23;89518;-78
2021/11/24 10:13:32;;;;;;;29.17;10.18;;;20.50;58.00;;;;;;6123494;23;87832;-78
2021/11/24 10:15:57;;;;;;;25.23;9.60;;;20.50;58.00;;;;;;6120677;23;88140;-78
2021/11/24 10:18:30;;;;;;;26.40;9.68;;;20.60;58.00;;;;;;6122015;22;88015;-77
2021/11/24 10:21:04;;;;;;;21.00;9.53;;;20.50;58.00;;;;;;6121316;23;87400;-78
2021/11/24 10:23:39;;;;;;;24.92;9.63;;;20.50;57.90;;;;;;6121660;23;87560;-77
2021/11/24 10:26:32;;;;;;;24.23;10.07;;;20.50;57.90;;;;;;6120472;23;87418;-78
2021/11/24 10:28:59;;;;;;;22.50;9.85;;;20.50;57.70;;;;;;6119004;22;87499;-78
2021/11/24 10:31:31;;;;;;;21.38;9.63;;;20.50;57.70;;;;;;6118505;23;88991;-77
2021/11/24 10:33:57;;;;;;;19.02;8.90;;;20.50;57.50;;;;;;6119987;23;89242;-77
2021/11/24 10:36:23;;;;;;;20.83;8.60;;;20.50;57.50;;;;;;6121018;23;87700;-77
2021/11/24 10:38:52;;;;;;;22.30;9.90;;;20.50;57.40;;;;;;6119434;22;87288;-78
2021/11/24 10:41:36;;;;;;;19.17;9.20;;;20.50;57.40;;;;;;6118451;23;89759;-78
2021/11/24 10:44:03;;;;;;;27.88;9.90;;;20.50;57.40;;;;;;6119212;23;89928;-78
2021/11/24 10:46:29;;;;;;;24.08;9.38;;;20.50;57.30;;;;;;6120782;23;87906;-78
2021/11/24 10:49:13;;;;;;;23.83;9.85;;;20.50;57.40;;;;;;6118590;23;86933;-79
2021/11/24 10:51:41;;;;;;;21.70;8.48;;;20.50;57.30;;;;;;6119664;23;87791;-77
2021/11/24 10:54:18;;;;;;;22.13;9.07;;;20.50;57.20;;;;;;6120426;23;87991;-78
2021/11/24 10:57:08;;;;;;;19.92;8.93;;;20.60;57.10;;;;;;6120591;23;87796;-79
2021/11/24 10:59:37;;;;;;;19.40;9.27;;;20.60;57.00;;;;;;6119750;22;89389;-78
2021/11/24 11:02:16;;;;;;;16.92;7.57;;;20.70;57.00;;;;;;6119674;23;88016;-78
2021/11/24 11:04:54;;;;;;;18.42;8.15;;;20.70;56.90;;;;;;6119858;23;87862;-78
2021/11/24 11:07:19;;;;;;;20.23;8.05;;;20.80;56.80;;;;;;6119738;23;88707;-78
2021/11/24 11:09:45;;;;;;;21.27;7.78;;;20.80;56.70;;;;;;6120215;23;87171;-78
2021/11/24 11:12:11;;;;;;;15.77;7.22;;;20.80;56.60;;;;;;6119536;23;89790;-79
2021/11/24 11:14:36;;;;;;;18.75;7.30;;;20.90;56.60;;;;;;6119631;23;89882;-78
2021/11/24 11:17:04;;;;;;;15.75;6.78;;;20.90;56.60;;;;;;6122028;23;87117;-78
2021/11/24 11:19:45;;;;;;;19.70;7.20;;;21.00;56.50;;;;;;6120093;22;87703;-78
2021/11/24 11:22:16;;;;;;;18.50;7.57;;;21.00;56.50;;;;;;6122348;23;87598;-79
2021/11/24 11:24:42;;;;;;;17.13;7.25;;;21.00;56.40;;;;;;6120350;23;87825;-78
2021/11/24 11:27:08;;;;;;;15.35;7.15;;;21.00;56.30;;;;;;6121386;23;87054;-78
2021/11/24 11:29:36;;;;;;;21.30;7.03;;;21.10;56.30;;;;;;6120279;22;87481;-78
2021/11/24 11:32:04;;;;;;;17.73;6.75;;;21.10;56.30;;;;;;6117157;23;92213;-78
2021/11/24 11:34:30;;;;;;;17.95;6.93;;;21.10;56.30;;;;;;6118985;23;88475;-78
2021/11/24 11:36:57;;;;;;;14.20;6.43;;;21.10;56.30;;;;;;6118610;23;88578;-78
2021/11/24 11:39:23;;;;;;;17.95;6.65;;;21.10;56.30;;;;;;6117306;22;89304;-78
2021/11/24 11:41:50;;;;;;;15.82;6.57;;;21.10;56.20;;;;;;6117821;23;89577;-78
2021/11/24 11:44:18;;;;;;;14.88;6.85;;;21.10;56.20;;;;;;6118468;23;90392;-78
2021/11/24 11:46:50;;;;;;;15.43;7.35;;;21.10;56.20;;;;;;6120811;23;87671;-78
2021/11/24 11:49:19;;;;;;;17.65;7.18;;;21.10;56.20;;;;;;6119600;22;86719;-78
2021/11/24 11:51:46;;;;;;;17.95;6.95;;;21.10;56.20;;;;;;6117702;23;90135;-78
2021/11/24 11:54:25;;;;;;;16.17;7.15;;;21.10;56.30;;;;;;6121662;23;87622;-78
2021/11/24 11:56:51;;;;;;;14.55;6.75;;;21.10;56.30;;;;;;6119094;23;89020;-79
2021/11/24 11:59:19;;;;;;;16.13;7.63;;;21.10;56.20;;;;;;6120425;23;87974;-79
2021/11/24 12:01:45;;;;;;;12.20;6.93;;;21.10;56.20;;;;;;6119605;23;87340;-79
2021/11/24 12:04:21;;;;;;;12.48;6.68;;;21.10;56.10;;;;;;6119641;23;90815;-78
2021/11/24 12:07:00;;;;;;;18.05;7.25;;;21.00;56.00;;;;;;6119732;22;87816;-79
2021/11/24 12:09:54;;;;;;;16.20;7.10;;;21.10;56.00;;;;;;6120025;22;87162;-78
2021/11/24 12:12:35;;;;;;;13.98;6.60;;;21.00;55.80;;;;;;6116010;23;90555;-79
2021/11/24 12:15:24;;;;;;;12.80;6.43;;;21.00;55.80;;;;;;6121400;23;88916;-78
2021/11/24 12:17:53;;;;;;;12.32;6.47;;;21.00;55.70;;;;;;6120551;23;87564;-78
2021/11/24 12:20:23;;;;;;;15.63;7.25;;;21.00;55.80;;;;;;6121026;23;87123;-79
2021/11/24 12:22:56;;;;;;;13.52;6.38;;;21.00;55.80;;;;;;6120954;23;90963;-78
2021/11/24 12:25:28;;;;;;;17.27;7.50;;;20.90;55.90;;;;;;6121080;23;91602;-79
2021/11/24 12:27:53;;;;;;;12.85;6.97;;;20.90;56.00;;;;;;6121785;23;87503;-78
2021/11/24 12:30:46;;;;;;;14.40;6.80;;;20.90;56.10;;;;;;6125945;23;89545;-79
2021/11/24 12:33:15;;;;;;;15.02;7.22;;;20.90;56.20;;;;;;6125848;23;87667;-79
2021/11/24 12:36:11;;;;;;;16.23;6.72;;;20.90;56.20;;;;;;6126434;23;88063;-78
2021/11/24 12:38:54;;;;;;;21.88;7.78;;;20.80;56.40;;;;;;6095193;22;88816;-78
2021/11/24 12:41:26;;;;;;;25.52;8.43;;;20.90;56.60;;;;;;6123585;23;86744;-79
2021/11/24 12:43:55;;;;;;;20.63;7.65;;;20.90;56.70;;;;;;6116075;23;88155;-77
2021/11/24 12:46:25;;;;;;;18.42;8.35;;;20.90;56.80;;;;;;6119853;23;87990;-77
2021/11/24 12:49:00;;;;;;;17.33;7.60;;;20.80;56.80;;;;;;6120806;22;88154;-76